Latest Weather Observations for Ernabella/Pukatja

IDS60801

Issued at 7:01 am CST Thursday 17 August 2017 (issued every 30 minutes, with the page automatically refreshed every 10 minutes)

About weather observations | Map of weather stations | Latest weather observations for SA | Other Formats
Station Details ID: 016097 Name: PUKATJA Lat: -26.26 Lon: 132.18 Height: 703.2 m
Data from the previous 72 hours. | See also: Recent months at Ernabella/Pukatja
Date/Time
CST
Temp
°C
App
Temp
°C
Dew
Point
°C
Rel
Hum
%
Delta-T
°C
Wind Press
QNH
hPa
Press
MSL
hPa
Rain since
9am
mm
Dir  Spd
km/h
Gust
km/h
Spd
kts
Gust
kts
17/07:00am 14.4 8.7 -3.9 28 7.3 S 17 20 9 11 1018.6 1017.4 0.0
17/06:30am 14.2 9.4 -2.7 31 6.9 SW 13 17 7 9 1018.1 1017.0 0.0
17/06:00am 14.6 9.8 -2.3 31 7.0 SW 13 24 7 13 1017.7 1016.5 0.0
17/05:30am 14.9 10.0 -3.0 29 7.4 SSW 13 20 7 11 1017.2 1016.0 0.0
17/05:00am 14.8 10.5 -1.3 33 6.9 WSW 11 15 6 8 1016.8 1015.7 0.0
17/04:30am 15.0 10.8 -0.7 34 6.8 WSW 11 17 6 9 1016.7 1015.6 0.0
17/04:00am 15.0 10.5 -0.3 35 6.7 WSW 13 15 7 8 1016.5 1015.3 0.0
17/03:30am 15.0 10.9 -0.3 35 6.7 WSW 11 15 6 8 1016.6 1015.5 0.0
17/03:00am 15.2 11.5 -0.1 35 6.7 WSW 9 13 5 7 1016.7 1015.6 0.0
17/02:30am 15.8 11.2 -0.8 32 7.2 SSW 13 24 7 13 1016.7 1015.6 0.0
17/02:00am 16.0 10.7 -0.7 32 7.3 SSW 17 24 9 13 1017.0 1015.8 0.0
17/01:30am 16.2 10.7 0.7 35 7.0 S 19 26 10 14 1017.0 1015.8 0.0
17/01:00am 17.1 12.1 3.8 41 6.4 SW 19 24 10 13 1016.8 1015.7 0.0
17/12:30am 17.3 13.5 3.9 41 6.5 SW 13 24 7 13 1017.0 1015.8 0.0
17/12:00am 16.8 13.4 3.8 42 6.3 WSW 11 15 6 8 1017.1 1015.9 0.0
 
Date/Time
CST
Temp
°C
App
Temp
°C
Dew
Point
°C
Rel
Hum
%
Delta-T
°C
Wind Press
QNH
hPa
Press
MSL
hPa
Rain since
9am
mm
Dir  Spd
km/h
Gust
km/h
Spd
kts
Gust
kts
16/11:30pm 17.2 12.9 3.5 40 6.6 SW 15 20 8 11 1017.0 1015.8 0.0
16/11:00pm 16.6 13.6 4.0 43 6.1 WSW 9 13 5 7 1017.1 1015.9 0.0
16/10:30pm 16.6 14.0 4.0 43 6.1 WSW 7 11 4 6 1017.1 1015.9 0.0
16/10:00pm 16.9 13.6 4.3 43 6.2 SW 11 13 6 7 1017.0 1015.8 0.0
16/09:30pm 16.0 13.0 4.1 45 5.7 WSW 9 11 5 6 1016.7 1015.6 0.0
16/09:00pm 16.5 14.0 3.9 43 6.1 WSW 6 7 3 4 1016.5 1015.3 0.0
16/08:30pm 17.0 14.5 3.7 41 6.4 SW 6 9 3 5 1016.3 1015.1 0.0
16/08:00pm 18.2 13.7 4.0 39 7.0 WSW 17 20 9 11 1016.0 1014.8 0.0
16/07:30pm 19.1 16.1 4.1 37 7.4 SW 9 15 5 8 1015.6 1014.4 0.0
16/07:00pm 19.8 14.9 4.3 36 7.7 WSW 19 24 10 13 1015.1 1013.9 0.0
16/06:30pm 21.9 19.5 7.0 38 7.9 WNW 9 17 5 9 1014.4 1013.2 0.0
16/06:00pm 22.3 19.1 6.9 37 8.2 WNW 13 17 7 9 1014.3 1013.1 0.0
16/05:30pm 22.6 19.8 6.8 36 8.4 WNW 11 17 6 9 1014.2 1013.0 0.0
16/05:00pm 22.6 19.4 6.8 36 8.4 W 13 19 7 10 1014.0 1012.7 0.0
16/04:30pm 22.7 18.1 6.5 35 8.6 WNW 20 30 11 16 1013.9 1012.6 0.0
16/04:00pm 23.4 20.2 6.7 34 8.9 NW 13 22 7 12 1014.0 1012.7 0.0
16/03:30pm 24.3 20.2 6.1 31 9.7 NW 17 30 9 16 1014.1 1012.8 0.0
16/03:00pm 23.8 21.2 6.1 32 9.4 NW 9 13 5 7 1014.2 1013.0 0.0
16/02:30pm 22.8 19.6 5.3 32 9.1 NW 11 17 6 9 1014.4 1013.2 0.0
16/02:00pm 21.2 18.0 5.1 35 8.2 N 11 24 6 13 1014.9 1013.7 0.0
16/01:30pm 21.4 17.8 4.9 34 8.4 WNW 13 22 7 12 1015.4 1014.2 0.0
16/01:00pm 21.1 17.7 4.2 33 8.5 N 11 22 6 12 1015.9 1014.7 0.0
16/12:30pm 19.9 16.1 4.0 35 7.9 NNE 13 22 7 12 1016.1 1014.9 0.0
16/12:00pm 18.8 15.7 3.4 36 7.5 NW 9 15 5 8 1017.2 1016.0 0.0
16/11:30am 18.3 14.7 3.0 36 7.3 SSW 11 15 6 8 1017.6 1016.4 0.0
16/11:00am 17.6 14.4 2.8 37 7.1 WSW 9 15 5 8 1018.3 1017.2 0.0
16/10:30am 16.9 14.1 2.9 39 6.6 WSW 7 13 4 7 1018.6 1017.4 0.0
16/10:00am 15.9 12.7 3.0 42 6.1 WSW 9 17 5 9 1018.9 1017.7 0.0
16/09:30am 15.4 11.1 3.5 45 5.6 S 15 19 8 10 1018.7 1017.5 0.0
16/09:00am 14.7 10.3 2.9 45 5.5 S 15 24 8 13 1018.5 1017.3 0.0
16/08:30am 14.2 9.4 2.8 46 5.3 S 17 20 9 11 1018.0 1016.9 0.0
16/08:00am 13.1 8.2 4.0 54 4.3 SSW 19 26 10 14 1017.6 1016.4 0.0
16/07:30am 12.6 8.0 3.8 55 4.1 S 17 24 9 13 1017.2 1016.0 0.0
16/07:00am 12.6 8.7 5.3 61 3.5 S 15 20 8 11 1016.7 1015.6 0.0
16/06:30am 12.2 9.2 7.5 73 2.4 SW 13 28 7 15 1016.4 1015.2 0.0
16/06:00am 12.1 8.6 7.4 73 2.4 SW 15 24 8 13 1016.1 1014.9 0.0
16/05:30am 12.4 8.2 7.3 71 2.6 SW 19 30 10 16 1015.7 1014.5 0.0
16/05:00am 12.2 8.4 7.7 74 2.3 SW 17 24 9 13 1015.5 1014.3 0.0
16/04:30am 12.5 7.4 7.6 72 2.5 SW 24 30 13 16 1015.2 1014.0 0.0
16/04:00am 13.1 7.8 6.7 65 3.2 SW 24 30 13 16 1015.1 1013.9 0.0
16/03:30am 13.4 7.9 7.4 67 3.0 SW 26 35 14 19 1015.0 1013.8 0.0
16/03:00am 13.8 8.4 8.2 69 2.9 SW 26 37 14 20 1015.1 1013.9 0.0
16/02:30am 14.4 8.2 9.4 72 2.7 SW 32 46 17 25 1015.0 1013.8 0.0
16/02:25am 14.6 9.2 9.6 72 2.7 SW 28 46 15 25 1015.1 1013.9 0.0
16/02:00am 15.2 10.2 11.0 76 2.3 SSW 28 39 15 21 1015.5 1014.3 0.0
16/01:30am 15.4 12.2 11.2 76 2.3 SSW 19 35 10 19 1015.7 1014.5 0.0
16/01:00am 15.8 11.9 10.8 72 2.8 SSW 22 32 12 17 1015.8 1014.6 0.0
16/12:30am 16.6 11.9 10.7 68 3.3 SSW 26 43 14 23 1015.7 1014.5 0.0
16/12:00am 17.5 13.1 10.4 63 3.9 SSW 24 33 13 18 1015.6 1014.4 0.0
 
Date/Time
CST
Temp
°C
App
Temp
°C
Dew
Point
°C
Rel
Hum
%
Delta-T
°C
Wind Press
QNH
hPa
Press
MSL
hPa
Rain since
9am
mm
Dir  Spd
km/h
Gust
km/h
Spd
kts
Gust
kts
15/11:30pm 18.6 14.9 10.2 58 4.6 SSE 20 32 11 17 1015.6 1014.4 0.0
15/11:00pm 20.0 15.2 10.4 54 5.4 SSW 26 37 14 20 1015.6 1014.4 0.0
15/10:30pm 21.4 16.2 9.0 45 6.8 SSW 26 41 14 22 1015.0 1013.8 0.0
15/10:00pm 22.2 15.3 6.4 36 8.3 SSW 32 44 17 24 1014.7 1013.5 0.0
15/09:30pm 22.8 16.6 6.1 34 8.8 SW 28 37 15 20 1014.5 1013.3 0.0
15/09:00pm 23.7 16.6 5.6 31 9.5 SW 32 43 17 23 1014.4 1013.2 0.0
15/08:30pm 23.8 18.0 4.2 28 10.0 SW 24 35 13 19 1014.2 1013.0 0.0
15/08:00pm 24.8 18.5 3.5 25 10.8 SW 26 33 14 18 1013.6 1012.4 0.0
15/07:30pm 24.1 19.2 -0.2 20 11.5 WNW 15 28 8 15 1012.9 1011.7 0.0
15/07:00pm 26.5 21.6 -0.5 17 12.9 WNW 15 28 8 15 1012.1 1010.9 0.0
15/06:30pm 27.3 21.4 -0.7 16 13.4 WNW 20 30 11 16 1011.7 1010.5 0.0
15/06:00pm 28.7 22.0 -1.4 14 14.4 NW 24 39 13 21 1011.2 1009.9 0.0
15/05:30pm 29.6 23.0 -0.7 14 14.8 NW 24 37 13 20 1011.1 1009.8 0.0
15/05:12pm 29.9 22.5 -0.5 14 14.9 NW 28 50 15 27 1011.0 1009.7 0.0
15/05:00pm 30.1 22.6 -1.3 13 15.2 WNW 28 41 15 22 1011.0 1009.7 0.0
15/04:30pm 30.2 21.8 -1.2 13 15.2 WNW 33 48 18 26 1010.9 1009.6 0.0
15/04:00pm 30.6 22.4 -0.9 13 15.4 NW 32 52 17 28 1010.7 1009.5 0.0
15/03:53pm 31.0 23.1 -1.7 12 15.8 WNW 30 52 16 28 1010.9 1009.6 0.0
15/03:30pm 30.4 22.0 -1.1 13 15.3 NW 33 48 18 26 1011.2 1009.9 0.0
15/03:05pm 30.5 21.6 -2.1 12 15.6 NW 35 56 19 30 1011.4 1010.1 0.0
15/03:00pm 31.0 22.5 -1.7 12 15.8 NW 33 50 18 27 1011.4 1010.1 0.0
15/02:56pm 30.6 22.3 -2.0 12 15.6 NW 32 50 17 27 1011.3 1010.0 0.0
15/02:30pm 30.4 21.8 -2.2 12 15.6 WNW 33 46 18 25 1011.7 1010.5 0.0
15/02:00pm 30.0 21.9 -0.4 14 14.9 NW 32 50 17 27 1012.0 1010.8 0.0
15/01:30pm 29.9 21.9 0.5 15 14.6 NW 32 50 17 27 1012.5 1011.2 0.0
15/01:02pm 30.1 22.5 0.6 15 14.7 NW 30 48 16 26 1013.1 1011.9 0.0
15/01:00pm 29.6 22.3 0.2 15 14.5 NW 28 44 15 24 1013.1 1011.9 0.0
15/12:46pm 29.1 21.1 0.7 16 14.1 WNW 32 50 17 27 1013.4 1012.2 0.0
15/12:30pm 29.4 21.3 1.0 16 14.2 WNW 33 46 18 25 1013.9 1012.6 0.0
15/12:04pm 28.7 20.5 0.4 16 14.0 NW 33 54 18 29 1014.4 1013.2 0.0
15/12:00pm 28.9 21.1 1.4 17 13.8 NW 32 46 17 25 1014.4 1013.2 0.0
15/11:30am 27.8 21.0 0.5 17 13.4 WNW 26 35 14 19 1015.0 1013.8 0.0
15/11:00am 27.2 19.5 0.1 17 13.2 WNW 30 35 16 19 1015.6 1014.4 0.0
15/10:30am 27.1 20.6 0.0 17 13.1 WNW 24 32 13 17 1015.9 1014.7 0.0
15/10:00am 25.9 17.8 -0.2 18 12.5 NW 32 43 17 23 1015.8 1014.6 0.0
15/09:39am 25.6 18.2 -0.5 18 12.4 WNW 28 46 15 25 1015.8 1014.6 0.0
15/09:30am 25.6 19.4 -0.5 18 12.4 WNW 22 33 12 18 1015.9 1014.7 0.0
15/09:00am 24.1 18.2 -0.9 19 11.6 WNW 20 32 11 17 1015.9 1014.7 0.0
15/08:30am 23.2 17.3 -1.0 20 11.2 W 20 32 11 17 1015.9 1014.7 0.0
15/08:00am 21.9 17.0 -0.8 22 10.4 WSW 15 20 8 11 1015.9 1014.7 0.0
15/07:30am 21.5 16.1 -1.1 22 10.3 W 17 20 9 11 1015.9 1014.7 0.0
15/07:00am 21.2 15.5 -0.7 23 10.0 WNW 19 26 10 14 1015.7 1014.5 0.0
15/06:56am 21.5 15.8 -0.5 23 10.1 WNW 19 26 10 14 1015.7 1014.5 0.0
15/06:30am 16.3 11.8 -0.4 32 7.4 WNW 13 17 7 9 1015.5 1014.3 0.0
15/06:00am 15.2 11.9 -0.1 35 6.7 E 7 9 4 5 1015.5 1014.3 0.0
15/05:30am 14.2 11.7 -1.0 35 6.5 NNW 2 7 1 4 1015.2 1014.0 0.0
15/05:00am 16.3 13.2 0.0 33 7.3 SW 6 9 3 5 1015.2 1014.0 0.0
15/04:30am 16.2 12.8 -0.9 31 7.5 WSW 7 9 4 5 1015.4 1014.2 0.0
15/04:00am 18.1 14.7 -0.7 28 8.4 WSW 7 11 4 6 1015.5 1014.3 0.0
15/03:30am 17.8 14.0 -0.9 28 8.3 WSW 9 11 5 6 1015.8 1014.6 0.0
15/03:00am 18.5 14.3 -0.8 27 8.6 WSW 11 13 6 7 1016.0 1014.8 0.0
15/02:30am 16.5 13.0 -1.1 30 7.7 SW 7 9 4 5 1016.2 1015.0 0.0
15/02:00am 12.5 9.0 -1.1 39 5.7 SSW 7 9 4 5 1016.5 1015.3 0.0
15/01:30am 12.5 10.2 -2.1 36 6.0 CALM 0 0 0 0 1016.8 1015.7 0.0
15/01:00am 13.6 11.5 -0.8 37 6.1 CALM 0 0 0 0 1017.0 1015.8 0.0
15/12:30am 13.4 11.2 -1.7 35 6.3 CALM 0 0 0 0 1017.1 1015.9 0.0
15/12:00am 13.6 11.3 -2.3 33 6.6 CALM 0 0 0 0 1017.4 1016.2 0.0
 
Date/Time
CST
Temp
°C
App
Temp
°C
Dew
Point
°C
Rel
Hum
%
Delta-T
°C
Wind Press
QNH
hPa
Press
MSL
hPa
Rain since
9am
mm
Dir  Spd
km/h
Gust
km/h
Spd
kts
Gust
kts
14/11:30pm 15.3 11.8 -1.7 31 7.2 SSW 7 7 4 4 1017.5 1016.3 0.0
14/11:00pm 14.5 11.1 -2.0 32 6.9 S 6 7 3 4 1017.6 1016.4 0.0
14/10:30pm 16.6 14.3 -2.0 28 7.9 CALM 0 0 0 0 1017.7 1016.5 0.0
14/10:00pm 18.4 15.8 -2.0 25 8.9 SE 2 6 1 3 1017.8 1016.7 0.0
14/09:30pm 20.3 18.1 -1.5 23 9.7 CALM 0 0 0 0 1017.8 1016.7 0.0
14/09:00pm 20.2 17.6 -1.6 23 9.7 N 2 6 1 3 1017.9 1016.8 0.0
14/08:30pm 20.2 16.7 -1.6 23 9.7 N 7 11 4 6 1017.7 1016.5 0.0
14/08:00pm 19.7 15.4 -2.0 23 9.5 N 11 13 6 7 1017.6 1016.4 0.0
14/07:30pm 20.7 16.8 -1.8 22 10.0 N 9 11 5 6 1017.4 1016.2 0.0
14/07:00pm 22.3 18.3 -2.4 19 11.0 N 9 11 5 6 1017.1 1015.9 0.0
14/06:30pm 24.9 20.1 -2.6 16 12.5 NNW 13 15 7 8 1017.0 1015.8 0.0
14/06:00pm 27.5 21.9 -3.3 13 14.1 NNW 17 22 9 12 1016.7 1015.6 0.0
14/05:30pm 29.0 23.4 -3.2 12 14.9 NW 17 24 9 13 1016.7 1015.6 0.0
14/05:00pm 29.8 23.5 -3.8 11 15.5 NW 20 28 11 15 1016.6 1015.5 0.0
14/04:30pm 30.2 24.5 -3.5 11 15.7 NW 17 30 9 16 1016.7 1015.6 0.0
14/04:00pm 30.1 24.0 -3.6 11 15.7 NW 19 30 10 16 1016.7 1015.6 0.0
14/03:30pm 30.0 24.4 -2.5 12 15.4 NW 17 30 9 16 1017.0 1015.8 0.0
14/03:00pm 30.0 23.9 -2.5 12 15.4 NW 20 35 11 19 1017.3 1016.1 0.0
14/02:30pm 30.5 24.3 -3.3 11 15.8 NW 20 35 11 19 1017.6 1016.4 0.0
14/02:00pm 30.6 24.7 -2.0 12 15.6 NW 19 30 10 16 1018.0 1016.9 0.0
14/01:30pm 29.6 22.7 -2.8 12 15.2 WNW 24 35 13 19 1018.6 1017.4 0.0
14/01:00pm 29.1 22.6 -2.1 13 14.8 NNW 22 37 12 20 1019.0 1017.8 0.0
14/12:30pm 29.2 23.1 -2.0 13 14.8 NNW 20 33 11 18 1019.6 1018.5 0.0
14/12:00pm 28.7 22.0 -1.4 14 14.3 NW 24 35 13 19 1020.2 1019.0 0.0
14/11:30am 28.3 22.5 -1.7 14 14.2 NW 19 30 10 16 1020.6 1019.5 0.0
14/11:00am 27.7 21.4 -1.3 15 13.8 NNW 22 35 12 19 1021.0 1019.9 0.0
14/10:30am 26.8 20.0 -2.0 15 13.4 NNW 24 30 13 16 1021.2 1020.1 0.0
14/10:00am 26.4 21.8 -1.4 16 13.1 NNW 13 20 7 11 1021.5 1020.3 0.0
14/09:30am 25.4 20.0 -1.4 17 12.5 NNW 17 22 9 12 1021.5 1020.3 0.0
14/09:00am 23.3 21.2 -0.9 20 11.2 CALM 0 0 0 0 1021.6 1020.5 0.0
14/08:30am 20.1 17.1 1.0 28 8.9 SE 6 6 3 3 1021.5 1020.3 0.0
14/08:27am 19.6 16.6 1.1 29 8.7 ESE 6 7 3 4 1021.5 1020.3 0.0
14/08:00am 14.5 12.7 1.4 41 5.9 CALM 0 0 0 0 1021.2 1020.1 0.0
14/07:30am 10.2 7.0 -0.3 48 4.4 ENE 6 7 3 4 1021.0 1019.9 0.0

Other Formats:

Comma delimited format used in spreadsheet applications
http://www.bom.gov.au/fwo/IDS60801/IDS60801.94474.axf

JavaScript Object Notation format (JSON) in row-major order
http://www.bom.gov.au/fwo/IDS60801/IDS60801.94474.json